Time;durP1;ratioP1;P1;durP2;ratioP2;P2;SDS_P1;SDS_P2;PMS_P1;PMS_P2;Temp;Humidity;BMP_temperature;BMP_pressure;BME280_temperature;BME280_humidity;BME280_pressure;Samples;Min_cycle;Max_cycle;Signal;HPM_P1;HPM_P2
2022/03/17 03:47:08;;;;;;;103.53;57.28;;;3.50;97.90;;;;;;5071167;24;20081;-80
2022/03/17 03:49:34;;;;;;;99.47;54.38;;;3.50;98.30;;;;;;4864370;29;20100;-80
2022/03/17 03:52:00;;;;;;;104.15;54.95;;;3.50;98.20;;;;;;4861820;29;20090;-81
2022/03/17 03:54:25;;;;;;;93.53;53.88;;;3.50;98.10;;;;;;4844816;29;20025;-80
2022/03/17 03:56:53;;;;;;;93.82;54.03;;;3.50;98.00;;;;;;4857283;29;20293;-80
2022/03/17 03:59:22;;;;;;;104.40;59.17;;;3.50;98.00;;;;;;4857936;29;20048;-80
2022/03/17 04:01:53;;;;;;;115.43;66.35;;;3.60;98.20;;;;;;4846742;29;20353;-80
2022/03/17 04:04:19;;;;;;;106.82;60.08;;;3.70;99.20;;;;;;4873001;29;20029;-80
2022/03/17 04:06:51;;;;;;;108.03;63.40;;;3.80;99.50;;;;;;4856430;29;20587;-80
2022/03/17 04:09:19;;;;;;;107.45;62.13;;;3.90;99.40;;;;;;4854131;29;20044;-80
2022/03/17 04:11:45;;;;;;;118.78;66.60;;;4.00;99.30;;;;;;4857342;29;20224;-80
2022/03/17 04:14:12;;;;;;;127.82;71.03;;;4.10;99.20;;;;;;4861533;29;20055;-80
2022/03/17 04:16:38;;;;;;;;;;;4.20;99.40;;;;;;4870341;29;20030;-81
2022/03/17 04:19:05;;;;;;;123.13;64.87;;;4.30;99.80;;;;;;4859104;29;19963;-81
2022/03/17 04:21:32;;;;;;;123.82;66.80;;;4.30;99.70;;;;;;4872953;29;20132;-80
2022/03/17 04:23:59;;;;;;;99.00;57.30;;;4.30;99.30;;;;;;4873264;29;20033;-80
2022/03/17 04:26:25;;;;;;;;;;;4.20;99.10;;;;;;4850712;29;20144;-81
2022/03/17 04:28:51;;;;;;;115.88;65.72;;;4.20;99.50;;;;;;4857682;29;19932;-81
2022/03/17 04:31:18;;;;;;;130.95;72.75;;;4.10;99.00;;;;;;4857506;29;20116;-82
2022/03/17 04:33:44;;;;;;;116.32;65.60;;;4.10;99.00;;;;;;4853960;29;20162;-81
2022/03/17 04:36:12;;;;;;;134.25;72.28;;;4.10;99.10;;;;;;4852002;29;20623;-81
2022/03/17 04:38:39;;;;;;;108.20;63.17;;;4.10;99.00;;;;;;4853297;29;20341;-81
2022/03/17 04:41:05;;;;;;;123.13;66.25;;;4.10;99.10;;;;;;4857511;29;20055;-81
2022/03/17 04:43:31;;;;;;;113.77;65.87;;;4.10;98.90;;;;;;4872695;29;20061;-81
2022/03/17 04:45:57;;;;;;;104.97;60.50;;;4.10;99.00;;;;;;4860401;29;20049;-81
2022/03/17 04:48:23;;;;;;;99.88;59.10;;;4.00;98.70;;;;;;4833298;29;20043;-81
2022/03/17 04:50:48;;;;;;;111.45;60.03;;;4.00;98.50;;;;;;4859608;29;20032;-81
2022/03/17 04:53:32;;;;;;;91.50;55.40;;;4.00;98.30;;;;;;4875616;29;20047;-81
2022/03/17 04:56:05;;;;;;;110.10;62.72;;;4.00;98.10;;;;;;4878142;29;20045;-81
2022/03/17 04:58:32;;;;;;;111.20;64.15;;;4.00;98.20;;;;;;4873853;29;20048;-81
2022/03/17 05:01:03;;;;;;;99.85;59.88;;;4.00;98.20;;;;;;4888195;29;20068;-81
2022/03/17 05:03:29;;;;;;;116.97;67.10;;;4.00;98.20;;;;;;4875721;29;20107;-80
2022/03/17 05:05:55;;;;;;;122.03;64.82;;;4.00;98.10;;;;;;4875918;29;20079;-80
2022/03/17 05:08:21;;;;;;;119.57;62.73;;;3.90;98.20;;;;;;4876002;29;20080;-80
2022/03/17 05:10:48;;;;;;;109.95;60.80;;;4.00;98.10;;;;;;4894852;29;20037;-82
2022/03/17 05:13:16;;;;;;;110.63;62.78;;;3.90;98.20;;;;;;4866984;29;20116;-82
2022/03/17 05:15:42;;;;;;;105.95;58.97;;;3.90;98.20;;;;;;4881360;29;20371;-82
2022/03/17 05:18:08;;;;;;;99.47;56.35;;;3.90;98.20;;;;;;4910574;29;20032;-81
2022/03/17 05:20:35;;;;;;;112.15;63.75;;;3.90;98.00;;;;;;4879453;29;20033;-81
2022/03/17 05:23:08;;;;;;;131.07;68.25;;;4.00;98.20;;;;;;4895147;29;20185;-81
2022/03/17 05:25:34;;;;;;;112.78;60.90;;;4.00;98.10;;;;;;4879157;29;20032;-81
2022/03/17 05:28:00;;;;;;;123.93;65.88;;;4.00;98.10;;;;;;4872962;29;20028;-81
2022/03/17 05:30:27;;;;;;;117.13;65.60;;;4.10;98.10;;;;;;4860174;29;20081;-81
2022/03/17 05:32:53;;;;;;;127.32;71.07;;;4.10;98.20;;;;;;4887880;29;20550;-81
2022/03/17 05:35:20;;;;;;;108.40;60.85;;;4.10;98.40;;;;;;4887753;29;20313;-81
2022/03/17 05:37:45;;;;;;;121.18;68.30;;;4.10;98.60;;;;;;4884660;29;20029;-81
2022/03/17 05:40:17;;;;;;;105.22;59.35;;;4.20;99.20;;;;;;4864501;29;20040;-81
2022/03/17 05:42:49;;;;;;;114.38;64.03;;;4.30;99.00;;;;;;4858211;29;20060;-80
2022/03/17 05:45:16;;;;;;;131.48;72.65;;;4.40;98.70;;;;;;4879379;29;20328;-80
2022/03/17 05:47:50;;;;;;;143.15;80.13;;;4.50;98.50;;;;;;4877633;29;20060;-81
2022/03/17 05:50:20;;;;;;;128.18;76.97;;;4.60;98.80;;;;;;4844888;29;20085;-82
2022/03/17 05:52:46;;;;;;;166.27;95.63;;;4.60;98.80;;;;;;4880022;29;20048;-80
2022/03/17 05:55:14;;;;;;;162.75;93.25;;;4.70;98.70;;;;;;4876573;29;20033;-81
2022/03/17 05:57:41;;;;;;;134.85;80.10;;;4.80;98.80;;;;;;4875377;29;20108;-81
2022/03/17 06:00:09;;;;;;;173.20;99.35;;;4.80;98.90;;;;;;4833436;29;20095;-81
2022/03/17 06:02:36;;;;;;;147.50;84.82;;;4.90;98.70;;;;;;4869191;29;20108;-81
2022/03/17 06:05:03;;;;;;;162.68;89.10;;;5.00;98.60;;;;;;4866020;29;20047;-81
2022/03/17 06:07:44;;;;;;;160.70;89.50;;;5.00;98.40;;;;;;4892676;29;20040;-81
2022/03/17 06:10:12;;;;;;;137.70;81.00;;;5.20;98.30;;;;;;4878892;29;20028;-81
2022/03/17 06:12:38;;;;;;;158.85;91.13;;;5.20;98.60;;;;;;4895137;29;20037;-81
2022/03/17 06:15:05;;;;;;;160.57;89.87;;;5.30;98.70;;;;;;4863386;29;20033;-80
2022/03/17 06:17:48;;;;;;;161.15;95.00;;;5.40;98.80;;;;;;4859862;29;20029;-80
2022/03/17 06:20:16;;;;;;;160.90;88.20;;;5.50;98.90;;;;;;4869139;29;20070;-81
2022/03/17 06:22:48;;;;;;;154.93;86.90;;;5.60;99.00;;;;;;4885885;29;20031;-81
2022/03/17 06:25:17;;;;;;;135.40;77.75;;;5.70;99.20;;;;;;4895887;29;20037;-81
2022/03/17 06:27:44;;;;;;;145.40;79.78;;;5.80;99.10;;;;;;4889364;29;20039;-81
2022/03/17 06:30:13;;;;;;;136.35;78.57;;;5.90;98.90;;;;;;4877410;29;20448;-81
2022/03/17 06:32:39;;;;;;;155.18;85.05;;;6.10;98.70;;;;;;4875629;29;20323;-81
2022/03/17 06:35:19;;;;;;;171.00;85.30;;;6.10;98.50;;;;;;4867430;29;20052;-81
2022/03/17 06:37:47;;;;;;;156.93;85.85;;;6.20;98.50;;;;;;4879927;29;20085;-81
2022/03/17 06:40:15;;;;;;;151.60;84.65;;;6.10;98.70;;;;;;4891646;29;20032;-85
2022/03/17 06:42:41;;;;;;;163.30;84.63;;;6.20;99.10;;;;;;4866977;29;20045;-81
2022/03/17 06:45:08;;;;;;;148.13;84.85;;;6.30;99.20;;;;;;4878029;29;20036;-81
2022/03/17 06:47:34;;;;;;;130.57;74.40;;;6.40;98.90;;;;;;4867847;29;20057;-81
2022/03/17 06:49:59;;;;;;;152.90;87.22;;;6.50;98.80;;;;;;4843973;29;20029;-81
2022/03/17 06:52:25;;;;;;;134.80;80.90;;;6.60;98.60;;;;;;4863633;29;20045;-82
2022/03/17 06:54:51;;;;;;;147.82;82.97;;;6.60;98.40;;;;;;4828822;29;20122;-82
2022/03/17 06:57:18;;;;;;;150.07;81.47;;;6.70;98.40;;;;;;4862446;29;20036;-82
2022/03/17 06:59:45;;;;;;;138.60;78.88;;;6.70;98.10;;;;;;4843307;29;20040;-82
2022/03/17 07:02:11;;;;;;;135.27;76.13;;;6.80;98.00;;;;;;4858232;29;20085;-83
2022/03/17 07:04:37;;;;;;;132.50;78.45;;;6.90;98.20;;;;;;4869470;29;20628;-82
2022/03/17 07:07:03;;;;;;;136.05;78.57;;;7.10;98.00;;;;;;4858560;29;20032;-82
2022/03/17 07:09:28;;;;;;;135.63;77.50;;;7.20;97.90;;;;;;4843248;29;20348;-82
2022/03/17 07:11:54;;;;;;;147.50;81.38;;;7.30;97.30;;;;;;4858513;29;20033;-82
2022/03/17 07:14:20;;;;;;;139.38;81.53;;;7.30;96.70;;;;;;4844568;29;20104;-82
2022/03/17 07:16:45;;;;;;;129.18;76.20;;;7.30;97.20;;;;;;4842246;29;20057;-83
2022/03/17 07:19:11;;;;;;;119.72;75.88;;;7.30;97.20;;;;;;4859794;29;20066;-82
2022/03/17 07:21:37;;;;;;;137.63;78.28;;;7.40;96.90;;;;;;4858849;29;20335;-82
2022/03/17 07:24:05;;;;;;;142.70;78.65;;;7.40;96.80;;;;;;4872881;29;20312;-82
2022/03/17 07:26:31;;;;;;;129.95;76.32;;;7.40;96.70;;;;;;4888291;29;20092;-82
2022/03/17 07:28:56;;;;;;;124.50;76.30;;;7.40;96.80;;;;;;4896518;29;20043;-82
2022/03/17 07:31:24;;;;;;;129.25;76.97;;;7.50;97.10;;;;;;4883887;29;20056;-82
2022/03/17 07:33:50;;;;;;;126.88;75.32;;;7.70;96.60;;;;;;4872416;29;20052;-81
2022/03/17 07:36:16;;;;;;;134.33;73.27;;;7.70;96.10;;;;;;4842689;29;20036;-81
2022/03/17 07:38:42;;;;;;;116.43;70.78;;;7.90;95.90;;;;;;4842138;29;20284;-81
2022/03/17 07:41:08;;;;;;;122.45;74.22;;;8.00;95.80;;;;;;4851401;29;20044;-81
2022/03/17 07:43:33;;;;;;;119.80;75.20;;;8.20;95.40;;;;;;4858392;29;20025;-83
2022/03/17 07:46:20;;;;;;;122.90;75.70;;;8.30;95.60;;;;;;4832985;29;20112;-82
2022/03/17 07:49:14;;;;;;;116.53;72.43;;;8.50;94.70;;;;;;4816877;29;20299;-82
2022/03/17 07:51:42;;;;;;;118.85;72.38;;;8.50;94.50;;;;;;4805041;29;20073;-82
2022/03/17 07:54:09;;;;;;;116.28;70.43;;;8.70;94.40;;;;;;4823158;29;20042;-81
2022/03/17 07:56:36;;;;;;;113.40;69.22;;;8.90;94.00;;;;;;4860646;29;20085;-81
2022/03/17 07:59:02;;;;;;;;;;;9.00;93.60;;;;;;4850817;29;20029;-81
2022/03/17 08:01:28;;;;;;;110.17;68.53;;;9.10;93.00;;;;;;4821130;29;19912;-82
2022/03/17 08:03:54;;;;;;;118.15;69.82;;;9.30;93.10;;;;;;4844269;29;20034;-82
2022/03/17 08:06:21;;;;;;;116.95;70.68;;;9.40;92.70;;;;;;4806322;29;20069;-81
2022/03/17 08:08:48;;;;;;;111.45;69.00;;;9.60;92.60;;;;;;4853510;29;20090;-82
2022/03/17 08:11:14;;;;;;;114.90;71.45;;;9.80;92.10;;;;;;4840321;29;20046;-81
2022/03/17 08:13:41;;;;;;;105.70;67.57;;;9.90;92.00;;;;;;4839540;29;20279;-83
2022/03/17 08:16:06;;;;;;;116.07;70.78;;;10.10;91.80;;;;;;4822802;29;20238;-83
2022/03/17 08:18:34;;;;;;;109.65;69.90;;;10.10;90.80;;;;;;4833668;29;20038;-83
2022/03/17 08:21:00;;;;;;;110.05;68.50;;;10.10;91.20;;;;;;4825476;29;20052;-86
2022/03/17 08:23:32;;;;;;;115.45;72.20;;;10.20;90.90;;;;;;4844068;29;20053;-84
2022/03/17 08:25:58;;;;;;;120.53;71.28;;;10.10;90.30;;;;;;4845350;29;20108;-85
2022/03/17 08:28:24;;;;;;;105.22;67.43;;;10.00;90.80;;;;;;4842981;29;20036;-84
2022/03/17 08:30:51;;;;;;;119.97;67.82;;;10.00;90.70;;;;;;4896265;29;20157;-82
2022/03/17 08:33:17;;;;;;;111.28;72.00;;;10.30;91.30;;;;;;4854844;29;20349;-82
2022/03/17 08:35:44;;;;;;;110.45;68.97;;;10.40;89.60;;;;;;4846859;29;20032;-80
2022/03/17 08:38:11;;;;;;;114.53;71.13;;;10.40;90.30;;;;;;4875712;29;20064;-80
2022/03/17 08:40:38;;;;;;;111.95;73.60;;;10.60;90.30;;;;;;4841408;29;20357;-81
2022/03/17 08:43:08;;;;;;;122.72;72.47;;;10.70;90.20;;;;;;4874225;29;20059;-81
2022/03/17 08:51:05;;;;;;;118.57;70.30;;;10.80;89.40;;;;;;4860277;29;20112;-79
2022/03/17 08:53:31;;;;;;;111.85;70.07;;;10.90;88.00;;;;;;4860394;29;20052;-78
2022/03/17 08:55:58;;;;;;;111.32;68.10;;;10.90;88.50;;;;;;4851053;29;20344;-78
2022/03/17 08:58:24;;;;;;;119.18;70.88;;;10.80;87.20;;;;;;4844543;29;20086;-80
2022/03/17 09:00:50;;;;;;;118.65;70.13;;;10.60;88.90;;;;;;4850445;29;20080;-83
2022/03/17 09:03:15;;;;;;;104.60;67.22;;;10.40;89.80;;;;;;4849026;29;20037;-80
2022/03/17 09:05:41;;;;;;;101.28;64.97;;;10.50;90.30;;;;;;4854867;29;20072;-80
2022/03/17 09:08:08;;;;;;;100.20;65.40;;;10.70;90.20;;;;;;4854339;29;20060;-80
2022/03/17 09:10:35;;;;;;;103.90;66.80;;;11.00;89.60;;;;;;4834225;29;20219;-80
2022/03/17 09:13:07;;;;;;;101.97;67.72;;;11.30;87.90;;;;;;4841161;29;20283;-81
2022/03/17 09:15:38;;;;;;;97.43;65.28;;;11.30;86.70;;;;;;4837647;29;20045;-80
2022/03/17 09:18:08;;;;;;;99.70;64.57;;;11.10;86.40;;;;;;4847853;29;20037;-80
2022/03/17 09:20:35;;;;;;;93.75;61.38;;;11.10;87.60;;;;;;4855492;29;20053;-81
2022/03/17 09:23:02;;;;;;;110.30;61.92;;;11.30;87.40;;;;;;4855557;29;20055;-81
2022/03/17 09:25:29;;;;;;;98.18;62.78;;;11.50;87.20;;;;;;4870816;29;20226;-81
2022/03/17 09:27:56;;;;;;;93.30;60.92;;;11.70;85.50;;;;;;4870657;29;20289;-81
2022/03/17 09:30:22;;;;;;;90.80;60.38;;;11.70;84.30;;;;;;4888569;29;20049;-80
2022/03/17 09:32:48;;;;;;;103.80;62.55;;;11.80;85.90;;;;;;4850103;29;20194;-81
2022/03/17 09:35:16;;;;;;;90.68;60.28;;;11.80;84.80;;;;;;4874633;29;20041;-81
2022/03/17 09:37:42;;;;;;;92.30;60.78;;;12.00;85.10;;;;;;4889951;29;20036;-80
2022/03/17 09:40:09;;;;;;;90.30;61.10;;;12.10;84.30;;;;;;4874437;29;20043;-80
2022/03/17 09:42:35;;;;;;;;;;;12.20;83.30;;;;;;4895866;29;20021;-80
2022/03/17 09:45:02;;;;;;;92.80;56.17;;;12.30;82.80;;;;;;4874996;29;19982;-81
2022/03/17 09:47:32;;;;;;;70.85;47.47;;;12.50;82.60;;;;;;4889586;29;20295;-81
2022/03/17 09:50:00;;;;;;;73.88;48.60;;;12.60;79.90;;;;;;4884655;29;20210;-81
2022/03/17 09:52:27;;;;;;;75.55;47.40;;;12.70;79.70;;;;;;4888515;29;20017;-81
2022/03/17 09:54:53;;;;;;;;;;;12.70;77.70;;;;;;4857041;29;20202;-81
2022/03/17 09:57:20;;;;;;;73.57;49.85;;;12.70;76.40;;;;;;4893198;29;19911;-81
2022/03/17 09:59:56;;;;;;;70.50;48.90;;;12.70;77.40;;;;;;4876617;29;20059;-81
2022/03/17 10:02:23;;;;;;;80.88;53.83;;;12.80;78.40;;;;;;4888343;29;20048;-81
2022/03/17 10:04:49;;;;;;;79.60;52.92;;;12.90;78.40;;;;;;4860855;29;20225;-81
2022/03/17 10:07:20;;;;;;;99.05;57.40;;;13.00;78.50;;;;;;4897077;29;20165;-81
2022/03/17 10:09:47;;;;;;;88.55;54.75;;;13.10;76.70;;;;;;4877735;29;20232;-81
2022/03/17 10:12:16;;;;;;;77.45;52.28;;;13.00;77.10;;;;;;4880654;29;20029;-82
2022/03/17 10:14:45;;;;;;;80.70;52.30;;;12.90;76.50;;;;;;4862125;29;20033;-81
2022/03/17 10:17:37;;;;;;;81.18;53.67;;;12.90;77.70;;;;;;4887624;29;20270;-81
2022/03/17 10:20:28;;;;;;;83.60;55.35;;;13.10;77.20;;;;;;4861451;29;20059;-80
2022/03/17 10:22:58;;;;;;;78.88;53.15;;;13.30;76.80;;;;;;4882222;29;20237;-81
2022/03/17 10:25:28;;;;;;;73.28;49.05;;;13.50;76.50;;;;;;4862880;29;20081;-82
2022/03/17 10:27:54;;;;;;;68.30;47.10;;;13.50;74.70;;;;;;4893777;29;20128;-80
2022/03/17 10:30:24;;;;;;;78.43;49.47;;;13.40;73.20;;;;;;4910494;29;20036;-81
2022/03/17 10:32:58;;;;;;;70.68;45.45;;;13.20;73.60;;;;;;4875077;29;20044;-81
2022/03/17 10:35:33;;;;;;;70.13;45.45;;;13.30;74.40;;;;;;4877791;29;20325;-81
2022/03/17 10:38:09;;;;;;;65.03;44.70;;;13.40;72.00;;;;;;4909512;29;20178;-81
2022/03/17 10:40:35;;;;;;;71.55;45.55;;;13.50;72.60;;;;;;4885321;29;20024;-80
2022/03/17 10:43:18;;;;;;;61.00;39.63;;;13.60;72.80;;;;;;4844551;29;20067;-81
2022/03/17 10:45:44;;;;;;;62.30;40.83;;;13.90;68.20;;;;;;4874605;29;20356;-81
2022/03/17 10:48:12;;;;;;;58.97;40.58;;;13.90;68.50;;;;;;4874903;29;20041;-81
2022/03/17 10:50:39;;;;;;;59.28;38.65;;;14.20;67.90;;;;;;4859698;29;20056;-81
2022/03/17 10:53:05;;;;;;;58.08;39.08;;;14.30;65.90;;;;;;4898034;29;20439;-82
2022/03/17 10:55:34;;;;;;;64.15;38.75;;;14.30;65.60;;;;;;4872072;29;20033;-82
2022/03/17 10:58:17;;;;;;;60.25;39.42;;;14.30;63.80;;;;;;4902676;29;20024;-82
2022/03/17 11:00:50;;;;;;;57.88;38.20;;;14.20;63.20;;;;;;4887226;29;20025;-82
2022/03/17 11:03:17;;;;;;;56.55;38.17;;;14.10;63.70;;;;;;4904008;29;20028;-82
2022/03/17 11:05:43;;;;;;;;;;;14.10;65.20;;;;;;4894365;29;20032;-82
2022/03/17 11:08:10;;;;;;;60.53;40.00;;;14.30;65.70;;;;;;4877621;29;19974;-82
2022/03/17 11:10:37;;;;;;;54.30;34.00;;;14.40;65.60;;;;;;4877464;29;20040;-82
2022/03/17 11:13:09;;;;;;;45.08;30.85;;;14.40;62.30;;;;;;4885199;29;20045;-82
2022/03/17 11:15:38;;;;;;;46.85;33.80;;;14.20;60.40;;;;;;4889013;29;20184;-82
2022/03/17 11:18:07;;;;;;;54.35;31.17;;;14.20;61.50;;;;;;4875686;29;20092;-82
2022/03/17 11:20:34;;;;;;;49.08;32.25;;;14.20;61.50;;;;;;4892509;29;20028;-82
2022/03/17 11:23:09;;;;;;;48.50;31.50;;;14.30;62.00;;;;;;4867882;29;20029;-82
2022/03/17 11:25:37;;;;;;;51.05;34.75;;;14.50;60.90;;;;;;4859433;29;20041;-82
2022/03/17 11:28:04;;;;;;;50.25;32.35;;;14.50;62.90;;;;;;4890596;29;20016;-82
2022/03/17 11:30:47;;;;;;;45.45;30.55;;;14.80;59.80;;;;;;4892244;29;20041;-82
2022/03/17 11:33:28;;;;;;;47.03;30.25;;;14.90;58.40;;;;;;4866055;29;20151;-82
2022/03/17 11:35:59;;;;;;;37.10;25.77;;;15.00;59.10;;;;;;4896442;29;20077;-82
2022/03/17 11:38:38;;;;;;;41.85;25.45;;;15.30;57.50;;;;;;4878642;29;20061;-82
2022/03/17 11:41:20;;;;;;;36.38;24.35;;;15.70;53.10;;;;;;4870607;29;20037;-82
2022/03/17 11:43:46;;;;;;;33.97;20.75;;;15.90;52.80;;;;;;4884028;29;20049;-82
2022/03/17 11:46:18;;;;;;;31.13;19.10;;;16.10;49.40;;;;;;4874211;29;20069;-82
2022/03/17 11:48:45;;;;;;;33.90;21.25;;;16.10;46.20;;;;;;4872695;29;20143;-82
2022/03/17 11:51:14;;;;;;;35.65;21.77;;;16.00;47.10;;;;;;4857189;29;20542;-82
2022/03/17 11:53:52;;;;;;;33.97;22.40;;;16.00;45.60;;;;;;4844939;29;20069;-82
2022/03/17 11:56:32;;;;;;;36.03;22.30;;;15.90;46.20;;;;;;4854659;29;20038;-83
2022/03/17 11:58:58;;;;;;;37.45;22.48;;;15.90;46.60;;;;;;4873213;29;20117;-82
2022/03/17 12:01:39;;;;;;;30.83;20.63;;;16.00;46.40;;;;;;4863742;29;20419;-82
2022/03/17 12:04:06;;;;;;;37.95;22.15;;;16.10;45.10;;;;;;4871447;29;20321;-82
2022/03/17 12:06:37;;;;;;;34.42;21.48;;;16.10;46.00;;;;;;4882186;29;20037;-82
2022/03/17 12:09:10;;;;;;;33.97;21.80;;;16.20;45.00;;;;;;4868617;29;20041;-82
2022/03/17 12:11:39;;;;;;;34.53;21.85;;;16.20;44.60;;;;;;4853085;29;20121;-82
2022/03/17 12:14:21;;;;;;;30.00;20.55;;;16.30;44.10;;;;;;4886922;29;20033;-82
2022/03/17 12:16:55;;;;;;;33.80;20.38;;;16.30;42.90;;;;;;4887613;29;20084;-82
2022/03/17 12:19:33;;;;;;;37.13;19.95;;;16.40;42.70;;;;;;4897048;29;20237;-82
2022/03/17 12:22:02;;;;;;;32.67;18.77;;;16.40;41.40;;;;;;4907461;29;20033;-83
2022/03/17 12:24:53;;;;;;;34.13;21.02;;;16.10;42.00;;;;;;4887732;29;20190;-83
2022/03/17 12:27:26;;;;;;;27.70;19.38;;;16.00;43.70;;;;;;4871345;29;20061;-82
2022/03/17 12:29:56;;;;;;;31.40;20.20;;;16.30;42.70;;;;;;4888931;29;20036;-82
2022/03/17 12:32:25;;;;;;;31.80;21.60;;;16.40;42.00;;;;;;4890604;29;20036;-82
2022/03/17 12:34:55;;;;;;;35.15;20.35;;;16.40;42.50;;;;;;4875206;29;20240;-83
2022/03/17 12:37:24;;;;;;;31.02;21.08;;;16.40;42.70;;;;;;4874013;29;20024;-82
2022/03/17 12:39:52;;;;;;;32.22;20.17;;;16.50;40.60;;;;;;4890082;29;20028;-82
2022/03/17 12:42:22;;;;;;;30.83;19.73;;;16.40;41.20;;;;;;4882695;29;20041;-83
2022/03/17 12:44:52;;;;;;;32.20;21.67;;;16.40;41.80;;;;;;4869896;29;20029;-83
2022/03/17 12:47:20;;;;;;;35.00;21.55;;;16.40;41.30;;;;;;4875260;29;20057;-82
2022/03/17 12:49:47;;;;;;;30.40;20.65;;;16.60;41.90;;;;;;4856176;29;20032;-83
2022/03/17 12:52:20;;;;;;;32.95;22.08;;;16.80;39.60;;;;;;4842626;29;20235;-83
2022/03/17 12:54:50;;;;;;;31.27;21.13;;;16.90;40.60;;;;;;4886872;29;20055;-83
2022/03/17 12:57:16;;;;;;;31.83;21.00;;;17.00;41.10;;;;;;4883087;29;20343;-83
2022/03/17 12:59:41;;;;;;;30.63;20.02;;;17.20;40.00;;;;;;4843474;29;20029;-83
2022/03/17 13:02:07;;;;;;;35.70;21.75;;;17.20;40.40;;;;;;4848446;29;20029;-83
2022/03/17 13:04:39;;;;;;;37.78;22.55;;;17.00;38.60;;;;;;4881512;29;20109;-83
2022/03/17 13:07:14;;;;;;;39.20;21.83;;;16.90;40.00;;;;;;4868668;29;20368;-83
2022/03/17 13:09:43;;;;;;;34.03;19.55;;;16.80;40.10;;;;;;4841142;29;20052;-83
2022/03/17 13:14:57;;;;;;;30.92;17.90;;;16.80;39.30;;;;;;4889892;29;20033;-83
2022/03/17 13:18:03;;;;;;;27.25;17.20;;;16.90;38.30;;;;;;4857960;29;20036;-82
2022/03/17 13:20:29;;;;;;;26.13;17.90;;;16.70;37.30;;;;;;4832259;29;20056;-83
2022/03/17 13:23:00;;;;;;;29.33;18.55;;;16.70;36.70;;;;;;4852225;29;20061;-83
2022/03/17 13:25:33;;;;;;;32.35;18.45;;;16.70;37.00;;;;;;4851595;29;20140;-83
2022/03/17 13:28:12;;;;;;;28.70;18.13;;;16.70;37.40;;;;;;4835254;29;20094;-83
2022/03/17 13:30:44;;;;;;;25.38;17.70;;;16.70;36.80;;;;;;4836452;29;20046;-83
2022/03/17 13:33:16;;;;;;;32.00;19.25;;;16.60;37.80;;;;;;4837401;29;20040;-82
2022/03/17 13:35:46;;;;;;;26.70;18.20;;;16.50;37.90;;;;;;4828650;29;20037;-83
2022/03/17 13:38:20;;;;;;;28.42;18.70;;;16.30;37.70;;;;;;4838137;29;20061;-83
2022/03/17 13:40:52;;;;;;;31.30;18.80;;;16.20;38.40;;;;;;4852705;29;20070;-82
2022/03/17 13:43:38;;;;;;;31.95;19.77;;;16.20;38.60;;;;;;4841633;29;20134;-83
2022/03/17 13:46:24;;;;;;;28.70;20.60;;;16.10;38.90;;;;;;4867375;29;20117;-83
2022/03/17 13:48:50;;;;;;;36.40;21.40;;;16.10;40.00;;;;;;4833563;29;20049;-82
2022/03/17 13:51:28;;;;;;;36.60;23.15;;;15.90;39.70;;;;;;4837156;29;20042;-82
2022/03/17 13:54:02;;;;;;;34.95;22.48;;;15.90;40.10;;;;;;4813593;29;20265;-82
2022/03/17 13:56:28;;;;;;;37.55;22.75;;;15.80;40.80;;;;;;4854269;29;20083;-83
2022/03/17 13:58:57;;;;;;;45.85;25.13;;;15.70;40.70;;;;;;4879016;29;20325;-83
2022/03/17 14:01:24;;;;;;;41.03;22.73;;;15.50;40.50;;;;;;4860146;29;20025;-83
2022/03/17 14:03:58;;;;;;;36.10;23.95;;;15.50;41.20;;;;;;4845745;29;20112;-82
2022/03/17 14:06:34;;;;;;;34.63;23.45;;;15.40;41.70;;;;;;4878967;29;20055;-82
2022/03/17 14:09:08;;;;;;;39.27;23.73;;;15.40;42.50;;;;;;4876973;29;20047;-82
2022/03/17 14:11:36;;;;;;;35.20;23.42;;;15.40;42.40;;;;;;4884706;29;20036;-82
2022/03/17 14:14:11;;;;;;;35.53;24.20;;;15.30;42.10;;;;;;4881338;29;20321;-82
2022/03/17 14:16:39;;;;;;;39.60;23.02;;;15.30;42.30;;;;;;4843645;29;20070;-82
2022/03/17 14:19:06;;;;;;;39.45;24.23;;;15.20;41.90;;;;;;4888458;29;20053;-83
2022/03/17 14:21:33;;;;;;;30.17;20.65;;;15.00;42.40;;;;;;4874433;29;20024;-82
2022/03/17 14:24:12;;;;;;;34.13;20.70;;;14.90;41.20;;;;;;4882274;29;20328;-82
2022/03/17 14:26:47;;;;;;;35.10;21.63;;;14.90;41.80;;;;;;4858134;29;20236;-81
2022/03/17 14:29:14;;;;;;;32.45;22.30;;;14.90;42.50;;;;;;4877272;29;20340;-82
2022/03/17 14:31:42;;;;;;;35.85;24.02;;;14.90;42.30;;;;;;4875445;29;20540;-82
2022/03/17 14:34:09;;;;;;;35.63;23.40;;;14.90;43.10;;;;;;4859683;29;20040;-81
2022/03/17 14:36:37;;;;;;;38.53;23.33;;;14.90;43.90;;;;;;4892183;29;20344;-82
2022/03/17 14:39:06;;;;;;;40.92;24.33;;;14.90;43.90;;;;;;4909181;29;20083;-81
2022/03/17 14:41:32;;;;;;;42.28;26.35;;;14.90;43.20;;;;;;4873261;29;20069;-82
2022/03/17 14:43:58;;;;;;;36.43;25.20;;;14.80;43.80;;;;;;4883880;29;20037;-82
2022/03/17 14:46:26;;;;;;;43.63;26.17;;;14.70;44.10;;;;;;4881139;29;20087;-82
2022/03/17 14:48:55;;;;;;;41.58;25.42;;;14.60;44.40;;;;;;4858980;29;20037;-81
2022/03/17 14:51:21;;;;;;;37.42;24.08;;;14.40;44.90;;;;;;4842366;29;20120;-82
2022/03/17 14:53:47;;;;;;;40.90;24.63;;;14.40;45.00;;;;;;4880280;29;20366;-82
2022/03/17 14:56:16;;;;;;;35.70;23.40;;;14.40;45.20;;;;;;4875951;29;20028;-81
2022/03/17 14:58:44;;;;;;;38.20;24.55;;;14.40;44.90;;;;;;4885369;29;20104;-82
2022/03/17 15:01:12;;;;;;;39.78;24.92;;;14.40;45.30;;;;;;4858663;29;20044;-82
2022/03/17 15:03:42;;;;;;;41.95;23.77;;;14.40;46.40;;;;;;4876826;29;20048;-82
2022/03/17 15:06:10;;;;;;;39.85;24.73;;;14.30;45.80;;;;;;4892190;29;20210;-82
2022/03/17 15:08:43;;;;;;;41.58;23.60;;;14.30;45.40;;;;;;4879950;29;20156;-82
2022/03/17 15:11:12;;;;;;;50.65;26.45;;;14.20;45.40;;;;;;4887533;29;20342;-81
2022/03/17 15:13:38;;;;;;;41.08;23.95;;;14.10;46.00;;;;;;4860539;29;20069;-82
2022/03/17 15:16:05;;;;;;;41.30;23.52;;;14.00;46.20;;;;;;4862538;29;20348;-82
2022/03/17 15:18:31;;;;;;;34.38;23.10;;;14.00;46.30;;;;;;4883684;29;20111;-81
2022/03/17 15:20:58;;;;;;;51.80;24.60;;;14.00;46.40;;;;;;4854291;29;20049;-81
2022/03/17 15:23:28;;;;;;;36.97;23.60;;;14.00;46.40;;;;;;4876079;29;20040;-82
2022/03/17 15:25:54;;;;;;;39.25;25.27;;;14.00;46.50;;;;;;4893356;29;20119;-81
2022/03/17 15:31:05;;;;;;;39.13;25.95;;;13.90;46.90;;;;;;4879409;29;20040;-82
2022/03/17 15:33:31;;;;;;;40.33;25.20;;;13.80;47.10;;;;;;4888418;29;20040;-82
2022/03/17 15:36:01;;;;;;;45.83;26.45;;;13.80;47.20;;;;;;4861606;29;20036;-82
2022/03/17 15:38:27;;;;;;;45.78;26.42;;;13.70;47.40;;;;;;4878438;29;20056;-82
2022/03/17 15:40:53;;;;;;;45.00;25.92;;;13.70;47.40;;;;;;4878065;29;20036;-83
2022/03/17 15:43:20;;;;;;;45.33;27.25;;;13.70;48.10;;;;;;4878041;29;20041;-83
2022/03/17 15:45:46;;;;;;;44.08;26.98;;;13.80;48.20;;;;;;4890824;29;20056;-83
2022/03/17 15:48:13;;;;;;;42.50;27.50;;;13.80;47.90;;;;;;4887666;29;20393;-82
2022/03/17 15:50:47;;;;;;;52.05;27.13;;;13.80;48.00;;;;;;4874015;29;20333;-82
2022/03/17 15:53:15;;;;;;;51.05;27.02;;;13.70;48.10;;;;;;4889267;29;20281;-82
2022/03/17 15:55:41;;;;;;;40.13;26.70;;;13.60;48.20;;;;;;4868031;29;20021;-82
2022/03/17 15:58:06;;;;;;;51.55;26.73;;;13.60;48.60;;;;;;4888950;29;20045;-83
2022/03/17 16:00:32;;;;;;;40.70;26.90;;;13.60;49.10;;;;;;4869223;29;20053;-82
2022/03/17 16:02:59;;;;;;;46.03;28.38;;;13.50;49.20;;;;;;4875394;29;20028;-83
2022/03/17 16:05:29;;;;;;;42.45;26.85;;;13.40;49.50;;;;;;4885156;29;20032;-82
2022/03/17 16:07:55;;;;;;;43.70;26.90;;;13.30;49.70;;;;;;4890392;29;20101;-83
2022/03/17 16:15:51;;;;;;;50.22;28.45;;;13.10;50.30;;;;;;4888814;29;20055;-82
2022/03/17 16:18:17;;;;;;;42.42;27.65;;;13.00;50.70;;;;;;4872820;29;20029;-82
2022/03/17 16:20:46;;;;;;;45.20;27.73;;;12.90;50.90;;;;;;4873986;29;20065;-82
2022/03/17 16:23:17;;;;;;;46.75;28.90;;;12.80;51.40;;;;;;4890745;29;20033;-82
2022/03/17 16:25:44;;;;;;;49.22;29.30;;;12.80;51.90;;;;;;4871567;29;20041;-82
2022/03/17 16:28:10;;;;;;;42.08;28.67;;;12.60;52.40;;;;;;4848994;29;20056;-82
2022/03/17 16:30:36;;;;;;;61.10;29.67;;;12.60;52.50;;;;;;4872888;29;20037;-82
2022/03/17 16:33:02;;;;;;;45.35;27.80;;;12.50;52.80;;;;;;4875569;29;20039;-82
2022/03/17 16:35:28;;;;;;;53.05;31.08;;;12.50;53.00;;;;;;4867645;29;20229;-84
2022/03/17 16:37:54;;;;;;;53.87;30.30;;;12.40;53.30;;;;;;4875307;29;20037;-81
2022/03/17 16:40:20;;;;;;;47.53;29.33;;;12.30;53.90;;;;;;4861828;29;20125;-83